sensor_id;sensor_type;location;lat;lon;timestamp;pressure;altitude;pressure_sealevel;temperature;humidity
30516;BME280;17297;54.022;10.760;2023-05-11T00:00:43;101369.44;;;16.84;63.59
30516;BME280;17297;54.022;10.760;2023-05-11T00:03:09;101364.00;;;16.84;63.58
30516;BME280;17297;54.022;10.760;2023-05-11T00:05:34;101371.34;;;16.83;63.88
30516;BME280;17297;54.022;10.760;2023-05-11T00:07:59;101361.28;;;16.84;63.77
30516;BME280;17297;54.022;10.760;2023-05-11T00:10:27;101364.63;;;16.86;63.87
30516;BME280;17297;54.022;10.760;2023-05-11T00:12:52;101367.75;;;16.90;63.99
30516;BME280;17297;54.022;10.760;2023-05-11T00:15:17;101360.81;;;16.94;64.35
30516;BME280;17297;54.022;10.760;2023-05-11T00:17:43;101367.25;;;16.99;63.91
30516;BME280;17297;54.022;10.760;2023-05-11T00:20:09;101368.47;;;17.03;64.00
30516;BME280;17297;54.022;10.760;2023-05-11T00:22:35;101361.56;;;17.07;64.26
30516;BME280;17297;54.022;10.760;2023-05-11T00:25:00;101362.78;;;17.12;64.08
30516;BME280;17297;54.022;10.760;2023-05-11T00:27:26;101367.75;;;17.15;64.14
30516;BME280;17297;54.022;10.760;2023-05-11T00:29:51;101361.88;;;17.18;64.16
30516;BME280;17297;54.022;10.760;2023-05-11T00:32:17;101357.91;;;17.20;64.20
30516;BME280;17297;54.022;10.760;2023-05-11T00:34:42;101362.66;;;17.25;64.27
30516;BME280;17297;54.022;10.760;2023-05-11T00:37:07;101363.47;;;17.25;64.31
30516;BME280;17297;54.022;10.760;2023-05-11T00:39:32;101365.75;;;17.28;64.42
30516;BME280;17297;54.022;10.760;2023-05-11T00:42:04;101368.88;;;17.32;64.35
30516;BME280;17297;54.022;10.760;2023-05-11T00:44:29;101369.28;;;17.36;64.40
30516;BME280;17297;54.022;10.760;2023-05-11T00:46:55;101361.13;;;17.36;64.50
30516;BME280;17297;54.022;10.760;2023-05-11T00:49:21;101368.81;;;17.39;64.56
30516;BME280;17297;54.022;10.760;2023-05-11T00:51:47;101365.88;;;17.40;64.65
30516;BME280;17297;54.022;10.760;2023-05-11T00:54:13;101366.50;;;17.42;64.60
30516;BME280;17297;54.022;10.760;2023-05-11T00:56:40;101363.78;;;17.42;64.42
30516;BME280;17297;54.022;10.760;2023-05-11T00:59:07;101365.41;;;17.43;64.58
30516;BME280;17297;54.022;10.760;2023-05-11T01:01:32;101374.19;;;17.45;64.58
30516;BME280;17297;54.022;10.760;2023-05-11T01:03:57;101373.13;;;17.46;64.45
30516;BME280;17297;54.022;10.760;2023-05-11T01:09:02;101368.75;;;17.45;64.70
30516;BME280;17297;54.022;10.760;2023-05-11T01:11:46;101366.88;;;17.46;64.63
30516;BME280;17297;54.022;10.760;2023-05-11T01:14:19;101367.69;;;17.46;64.72
30516;BME280;17297;54.022;10.760;2023-05-11T01:16:49;101368.75;;;17.45;64.74
30516;BME280;17297;54.022;10.760;2023-05-11T01:19:38;101370.41;;;17.46;64.67
30516;BME280;17297;54.022;10.760;2023-05-11T01:22:27;101370.41;;;17.46;64.68
30516;BME280;17297;54.022;10.760;2023-05-11T01:25:06;101364.97;;;17.46;64.74
30516;BME280;17297;54.022;10.760;2023-05-11T01:27:55;101374.19;;;17.45;64.90
30516;BME280;17297;54.022;10.760;2023-05-11T01:30:28;101374.19;;;17.45;64.92
30516;BME280;17297;54.022;10.760;2023-05-11T01:33:07;101377.94;;;17.44;64.81
30516;BME280;17297;54.022;10.760;2023-05-11T01:35:36;101371.69;;;17.44;64.87
30516;BME280;17297;54.022;10.760;2023-05-11T01:38:05;101374.41;;;17.44;64.92
30516;BME280;17297;54.022;10.760;2023-05-11T01:40:35;101377.38;;;17.42;65.00
30516;BME280;17297;54.022;10.760;2023-05-11T01:43:07;101382.81;;;17.42;64.99
30516;BME280;17297;54.022;10.760;2023-05-11T01:45:38;101386.34;;;17.43;65.16
30516;BME280;17297;54.022;10.760;2023-05-11T01:48:06;101381.97;;;17.42;65.03
30516;BME280;17297;54.022;10.760;2023-05-11T01:50:34;101383.84;;;17.41;65.13
30516;BME280;17297;54.022;10.760;2023-05-11T01:53:02;101381.34;;;17.40;64.89
30516;BME280;17297;54.022;10.760;2023-05-11T01:55:31;101379.69;;;17.39;65.25
30516;BME280;17297;54.022;10.760;2023-05-11T01:57:59;101382.41;;;17.39;65.15
30516;BME280;17297;54.022;10.760;2023-05-11T02:00:25;101390.78;;;17.37;65.28
30516;BME280;17297;54.022;10.760;2023-05-11T02:02:52;101386.41;;;17.36;65.22
30516;BME280;17297;54.022;10.760;2023-05-11T02:05:21;101384.72;;;17.35;65.22
30516;BME280;17297;54.022;10.760;2023-05-11T02:07:51;101389.34;;;17.35;65.25
30516;BME280;17297;54.022;10.760;2023-05-11T02:10:18;101393.94;;;17.34;65.17
30516;BME280;17297;54.022;10.760;2023-05-11T02:12:44;101397.72;;;17.33;65.11
30516;BME280;17297;54.022;10.760;2023-05-11T02:15:13;101392.50;;;17.31;65.27
30516;BME280;17297;54.022;10.760;2023-05-11T02:17:39;101386.47;;;17.29;65.27
30516;BME280;17297;54.022;10.760;2023-05-11T02:20:06;101398.38;;;17.28;65.19
30516;BME280;17297;54.022;10.760;2023-05-11T02:22:34;101391.28;;;17.27;65.36
30516;BME280;17297;54.022;10.760;2023-05-11T02:25:02;101395.06;;;17.26;65.39
30516;BME280;17297;54.022;10.760;2023-05-11T02:27:27;101398.81;;;17.25;65.13
30516;BME280;17297;54.022;10.760;2023-05-11T02:29:54;101403.44;;;17.25;65.40
30516;BME280;17297;54.022;10.760;2023-05-11T02:32:21;101407.41;;;17.22;65.42
30516;BME280;17297;54.022;10.760;2023-05-11T02:34:53;101402.22;;;17.21;65.38
30516;BME280;17297;54.022;10.760;2023-05-11T02:37:24;101406.84;;;17.20;65.32
30516;BME280;17297;54.022;10.760;2023-05-11T02:39:57;101407.03;;;17.19;65.34
30516;BME280;17297;54.022;10.760;2023-05-11T02:42:25;101408.94;;;17.18;65.19
30516;BME280;17297;54.022;10.760;2023-05-11T02:44:59;101403.72;;;17.17;65.54
30516;BME280;17297;54.022;10.760;2023-05-11T02:47:29;101413.75;;;17.16;65.51
30516;BME280;17297;54.022;10.760;2023-05-11T02:49:56;101406.44;;;17.17;65.58
30516;BME280;17297;54.022;10.760;2023-05-11T02:52:26;101407.72;;;17.14;65.34
30516;BME280;17297;54.022;10.760;2023-05-11T02:54:53;101415.03;;;17.14;65.52
30516;BME280;17297;54.022;10.760;2023-05-11T02:57:22;101417.75;;;17.14;65.64
30516;BME280;17297;54.022;10.760;2023-05-11T02:59:48;101420.69;;;17.12;65.69
30516;BME280;17297;54.022;10.760;2023-05-11T03:02:14;101426.94;;;17.13;65.67
30516;BME280;17297;54.022;10.760;2023-05-11T03:04:40;101417.34;;;17.10;65.67
30516;BME280;17297;54.022;10.760;2023-05-11T03:07:06;101414.63;;;17.10;65.68
30516;BME280;17297;54.022;10.760;2023-05-11T03:09:33;101418.41;;;17.09;65.67
30516;BME280;17297;54.022;10.760;2023-05-11T03:11:59;101420.06;;;17.10;65.83
30516;BME280;17297;54.022;10.760;2023-05-11T03:14:27;101420.28;;;17.08;65.75
30516;BME280;17297;54.022;10.760;2023-05-11T03:16:56;101421.13;;;17.09;65.83
30516;BME280;17297;54.022;10.760;2023-05-11T03:19:23;101419.47;;;17.08;65.79
30516;BME280;17297;54.022;10.760;2023-05-11T03:21:51;101418.63;;;17.07;65.81
30516;BME280;17297;54.022;10.760;2023-05-11T03:24:17;101419.91;;;17.05;65.82
30516;BME280;17297;54.022;10.760;2023-05-11T03:26:43;101425.09;;;17.06;65.83
30516;BME280;17297;54.022;10.760;2023-05-11T03:29:10;101428.88;;;17.05;65.88
30516;BME280;17297;54.022;10.760;2023-05-11T03:31:37;101431.81;;;17.04;65.91
30516;BME280;17297;54.022;10.760;2023-05-11T03:34:03;101430.16;;;17.03;65.93
30516;BME280;17297;54.022;10.760;2023-05-11T03:36:34;101429.31;;;17.02;65.76
30516;BME280;17297;54.022;10.760;2023-05-11T03:39:00;101431.22;;;17.02;66.03
30516;BME280;17297;54.022;10.760;2023-05-11T03:41:30;101429.56;;;17.01;65.89
30516;BME280;17297;54.022;10.760;2023-05-11T03:43:59;101433.09;;;17.01;66.17
30516;BME280;17297;54.022;10.760;2023-05-11T03:46:25;101436.84;;;17.00;66.07
30516;BME280;17297;54.022;10.760;2023-05-11T03:48:52;101429.75;;;16.99;65.99
30516;BME280;17297;54.022;10.760;2023-05-11T03:51:22;101433.53;;;16.98;66.10
30516;BME280;17297;54.022;10.760;2023-05-11T03:53:48;101432.72;;;16.98;66.15
30516;BME280;17297;54.022;10.760;2023-05-11T03:56:13;101436.25;;;16.98;66.12
30516;BME280;17297;54.022;10.760;2023-05-11T03:58:39;101438.16;;;16.98;66.18
30516;BME280;17297;54.022;10.760;2023-05-11T04:01:06;101427.47;;;16.96;66.14
30516;BME280;17297;54.022;10.760;2023-05-11T04:03:33;101435.63;;;16.96;66.17
30516;BME280;17297;54.022;10.760;2023-05-11T04:05:58;101438.16;;;16.98;66.03
30516;BME280;17297;54.022;10.760;2023-05-11T04:08:24;101443.34;;;16.99;66.12
30516;BME280;17297;54.022;10.760;2023-05-11T04:10:49;101435.19;;;16.99;66.08
30516;BME280;17297;54.022;10.760;2023-05-11T04:13:15;101447.72;;;17.00;66.38
30516;BME280;17297;54.022;10.760;2023-05-11T04:15:40;101443.16;;;17.01;66.40
30516;BME280;17297;54.022;10.760;2023-05-11T04:18:06;101442.09;;;17.02;66.17
30516;BME280;17297;54.022;10.760;2023-05-11T04:20:31;101448.34;;;17.02;66.46
30516;BME280;17297;54.022;10.760;2023-05-11T04:22:57;101443.53;;;17.04;66.52
30516;BME280;17297;54.022;10.760;2023-05-11T04:25:23;101449.81;;;17.05;66.52
30516;BME280;17297;54.022;10.760;2023-05-11T04:27:49;101450.63;;;17.05;66.32
30516;BME280;17297;54.022;10.760;2023-05-11T04:30:15;101447.91;;;17.05;66.26
30516;BME280;17297;54.022;10.760;2023-05-11T04:32:40;101443.31;;;17.06;66.36
30516;BME280;17297;54.022;10.760;2023-05-11T04:35:07;101444.13;;;17.06;66.44
30516;BME280;17297;54.022;10.760;2023-05-11T04:37:35;101442.03;;;17.08;66.53
30516;BME280;17297;54.022;10.760;2023-05-11T04:40:03;101444.53;;;17.10;66.55
30516;BME280;17297;54.022;10.760;2023-05-11T04:42:34;101447.03;;;17.12;66.51
30516;BME280;17297;54.022;10.760;2023-05-11T04:45:01;101447.88;;;17.12;66.29
30516;BME280;17297;54.022;10.760;2023-05-11T04:47:27;101453.94;;;17.14;66.46
30516;BME280;17297;54.022;10.760;2023-05-11T04:49:52;101448.25;;;17.16;66.51
30516;BME280;17297;54.022;10.760;2023-05-11T04:52:18;101461.66;;;17.17;66.54
30516;BME280;17297;54.022;10.760;2023-05-11T04:54:46;101467.09;;;17.17;66.28
30516;BME280;17297;54.022;10.760;2023-05-11T04:57:12;101463.75;;;17.15;66.23
30516;BME280;17297;54.022;10.760;2023-05-11T04:59:37;101470.84;;;17.16;66.46
30516;BME280;17297;54.022;10.760;2023-05-11T05:02:03;101465.63;;;17.15;66.50
30516;BME280;17297;54.022;10.760;2023-05-11T05:04:28;101462.09;;;17.14;66.53
30516;BME280;17297;54.022;10.760;2023-05-11T05:06:53;101461.03;;;17.15;66.61
30516;BME280;17297;54.022;10.760;2023-05-11T05:09:19;101461.84;;;17.16;66.39
30516;BME280;17297;54.022;10.760;2023-05-11T05:11:44;101467.09;;;17.17;66.58
30516;BME280;17297;54.022;10.760;2023-05-11T05:14:10;101467.91;;;17.18;66.47
30516;BME280;17297;54.022;10.760;2023-05-11T05:16:36;101473.97;;;17.20;66.55
30516;BME280;17297;54.022;10.760;2023-05-11T05:19:01;101468.75;;;17.18;66.36
30516;BME280;17297;54.022;10.760;2023-05-11T05:21:29;101463.94;;;17.20;66.52
30516;BME280;17297;54.022;10.760;2023-05-11T05:23:55;101467.47;;;17.21;66.44
30516;BME280;17297;54.022;10.760;2023-05-11T05:26:20;101473.75;;;17.21;66.39
30516;BME280;17297;54.022;10.760;2023-05-11T05:28:47;101473.97;;;17.20;66.23
30516;BME280;17297;54.022;10.760;2023-05-11T05:31:13;101473.97;;;17.20;66.26
30516;BME280;17297;54.022;10.760;2023-05-11T05:33:38;101476.69;;;17.20;66.45
30516;BME280;17297;54.022;10.760;2023-05-11T05:36:04;101481.06;;;17.21;66.42
30516;BME280;17297;54.022;10.760;2023-05-11T05:38:29;101477.53;;;17.20;66.28
30516;BME280;17297;54.022;10.760;2023-05-11T05:40:56;101475.63;;;17.21;66.34
30516;BME280;17297;54.022;10.760;2023-05-11T05:43:24;101476.69;;;17.20;66.42
30516;BME280;17297;54.022;10.760;2023-05-11T05:45:49;101482.34;;;17.18;66.45
30516;BME280;17297;54.022;10.760;2023-05-11T05:48:15;101485.28;;;17.17;66.25
30516;BME280;17297;54.022;10.760;2023-05-11T05:50:40;101492.81;;;17.15;66.25
30516;BME280;17297;54.022;10.760;2023-05-11T05:53:06;101494.09;;;17.12;66.34
30516;BME280;17297;54.022;10.760;2023-05-11T05:55:33;101494.75;;;17.07;66.38
30516;BME280;17297;54.022;10.760;2023-05-11T05:58:01;101497.03;;;17.04;66.21
30516;BME280;17297;54.022;10.760;2023-05-11T06:00:26;101497.50;;;17.01;66.52
30516;BME280;17297;54.022;10.760;2023-05-11T06:03:00;101502.31;;;16.99;66.47
30516;BME280;17297;54.022;10.760;2023-05-11T06:05:26;101500.03;;;16.96;66.47
30516;BME280;17297;54.022;10.760;2023-05-11T06:07:51;101505.66;;;16.94;66.38
30516;BME280;17297;54.022;10.760;2023-05-11T06:10:17;101514.25;;;16.91;66.58
30516;BME280;17297;54.022;10.760;2023-05-11T06:12:45;101517.19;;;16.90;66.79
30516;BME280;17297;54.022;10.760;2023-05-11T06:15:11;101522.84;;;16.88;66.60
30516;BME280;17297;54.022;10.760;2023-05-11T06:17:38;101520.56;;;16.85;66.50
30516;BME280;17297;54.022;10.760;2023-05-11T06:20:05;101522.88;;;16.81;66.62
30516;BME280;17297;54.022;10.760;2023-05-11T06:22:30;101532.09;;;16.80;66.62
30516;BME280;17297;54.022;10.760;2023-05-11T06:24:56;101525.00;;;16.79;66.72
30516;BME280;17297;54.022;10.760;2023-05-11T06:27:22;101517.88;;;16.78;66.86
30516;BME280;17297;54.022;10.760;2023-05-11T06:29:52;101519.97;;;16.76;66.84
30516;BME280;17297;54.022;10.760;2023-05-11T06:32:18;101531.03;;;16.75;66.82
30516;BME280;17297;54.022;10.760;2023-05-11T06:34:44;101530.63;;;16.71;66.92
30516;BME280;17297;54.022;10.760;2023-05-11T06:37:10;101532.72;;;16.69;66.87
30516;BME280;17297;54.022;10.760;2023-05-11T06:39:35;101536.72;;;16.67;67.00
30516;BME280;17297;54.022;10.760;2023-05-11T06:42:06;101529.84;;;16.57;66.78
30516;BME280;17297;54.022;10.760;2023-05-11T06:44:32;101526.28;;;16.50;66.89
30516;BME280;17297;54.022;10.760;2023-05-11T06:46:58;101529.84;;;16.44;66.88
30516;BME280;17297;54.022;10.760;2023-05-11T06:49:25;101535.13;;;16.39;66.98
30516;BME280;17297;54.022;10.760;2023-05-11T06:51:50;101540.97;;;16.36;67.04
30516;BME280;17297;54.022;10.760;2023-05-11T06:54:16;101535.13;;;16.32;67.03
30516;BME280;17297;54.022;10.760;2023-05-11T06:56:41;101535.31;;;16.31;67.26
30516;BME280;17297;54.022;10.760;2023-05-11T06:59:07;101537.22;;;16.30;67.40
30516;BME280;17297;54.022;10.760;2023-05-11T07:01:32;101535.31;;;16.31;67.40
30516;BME280;17297;54.022;10.760;2023-05-11T07:03:57;101541.59;;;16.31;67.64
30516;BME280;17297;54.022;10.760;2023-05-11T07:06:23;101536.38;;;16.30;67.52
30516;BME280;17297;54.022;10.760;2023-05-11T07:08:48;101539.94;;;16.30;67.55
30516;BME280;17297;54.022;10.760;2023-05-11T07:11:13;101547.25;;;16.30;67.52
30516;BME280;17297;54.022;10.760;2023-05-11T07:13:39;101550.78;;;16.30;67.68
30516;BME280;17297;54.022;10.760;2023-05-11T07:16:05;101547.44;;;16.28;67.50
30516;BME280;17297;54.022;10.760;2023-05-11T07:18:31;101542.84;;;16.29;67.85
30516;BME280;17297;54.022;10.760;2023-05-11T07:20:56;101552.03;;;16.28;67.61
30516;BME280;17297;54.022;10.760;2023-05-11T07:23:21;101552.03;;;16.28;67.68
30516;BME280;17297;54.022;10.760;2023-05-11T07:25:46;101553.91;;;16.27;67.74
30516;BME280;17297;54.022;10.760;2023-05-11T07:28:12;101552.25;;;16.26;67.86
30516;BME280;17297;54.022;10.760;2023-05-11T07:30:37;101558.72;;;16.25;67.75
30516;BME280;17297;54.022;10.760;2023-05-11T07:33:02;101562.06;;;16.21;67.94
30516;BME280;17297;54.022;10.760;2023-05-11T07:35:28;101558.72;;;16.19;67.81
30516;BME280;17297;54.022;10.760;2023-05-11T07:37:53;101560.19;;;16.14;68.10
30516;BME280;17297;54.022;10.760;2023-05-11T07:40:19;101560.63;;;16.11;67.80
30516;BME280;17297;54.022;10.760;2023-05-11T07:42:44;101562.06;;;16.07;67.88
30516;BME280;17297;54.022;10.760;2023-05-11T07:45:10;101566.06;;;16.05;68.12
30516;BME280;17297;54.022;10.760;2023-05-11T07:47:35;101564.38;;;16.04;68.22
30516;BME280;17297;54.022;10.760;2023-05-11T07:50:00;101563.75;;;16.02;68.29
30516;BME280;17297;54.022;10.760;2023-05-11T07:52:26;101565.66;;;16.01;68.22
30516;BME280;17297;54.022;10.760;2023-05-11T07:54:51;101557.69;;;16.00;68.28
30516;BME280;17297;54.022;10.760;2023-05-11T07:57:18;101562.72;;;15.96;68.40
30516;BME280;17297;54.022;10.760;2023-05-11T07:59:43;101572.75;;;15.96;68.50
30516;BME280;17297;54.022;10.760;2023-05-11T08:02:09;101564.78;;;15.94;68.46
30516;BME280;17297;54.022;10.760;2023-05-11T08:04:35;101576.28;;;15.96;68.66
30516;BME280;17297;54.022;10.760;2023-05-11T08:07:00;101572.94;;;15.94;68.50
30516;BME280;17297;54.022;10.760;2023-05-11T08:09:26;101578.59;;;15.92;68.58
30516;BME280;17297;54.022;10.760;2023-05-11T08:11:52;101581.50;;;15.91;68.74
30516;BME280;17297;54.022;10.760;2023-05-11T08:14:20;101579.81;;;15.90;68.73
30516;BME280;17297;54.022;10.760;2023-05-11T08:16:46;101589.63;;;15.91;68.76
30516;BME280;17297;54.022;10.760;2023-05-11T08:19:11;101584.00;;;15.92;68.68
30516;BME280;17297;54.022;10.760;2023-05-11T08:21:37;101581.72;;;15.96;68.85
30516;BME280;17297;54.022;10.760;2023-05-11T08:24:02;101572.72;;;16.02;68.83
30516;BME280;17297;54.022;10.760;2023-05-11T08:26:28;101578.34;;;16.07;69.20
30516;BME280;17297;54.022;10.760;2023-05-11T08:28:53;101571.47;;;16.11;69.06
30516;BME280;17297;54.022;10.760;2023-05-11T08:31:18;101579.81;;;16.16;69.12
30516;BME280;17297;54.022;10.760;2023-05-11T08:33:44;101579.38;;;16.20;69.23
30516;BME280;17297;54.022;10.760;2023-05-11T08:36:09;101585.88;;;16.25;68.86
30516;BME280;17297;54.022;10.760;2023-05-11T08:38:37;101599.25;;;16.27;69.06
30516;BME280;17297;54.022;10.760;2023-05-11T08:41:03;101588.16;;;16.28;69.24
30516;BME280;17297;54.022;10.760;2023-05-11T08:43:29;101592.16;;;16.32;69.25
30516;BME280;17297;54.022;10.760;2023-05-11T08:45:59;101588.16;;;16.35;69.29
30516;BME280;17297;54.022;10.760;2023-05-11T08:48:27;101588.56;;;16.38;69.18
30516;BME280;17297;54.022;10.760;2023-05-11T08:50:53;101594.19;;;16.44;69.29
30516;BME280;17297;54.022;10.760;2023-05-11T08:53:18;101596.50;;;16.47;69.34
30516;BME280;17297;54.022;10.760;2023-05-11T08:55:45;101598.38;;;16.46;69.35
30516;BME280;17297;54.022;10.760;2023-05-11T08:58:12;101601.72;;;16.48;69.37
30516;BME280;17297;54.022;10.760;2023-05-11T09:00:44;101597.97;;;16.49;69.35
30516;BME280;17297;54.022;10.760;2023-05-11T09:03:09;101599.63;;;16.50;69.08
30516;BME280;17297;54.022;10.760;2023-05-11T09:05:35;101602.34;;;16.50;69.19
30516;BME280;17297;54.022;10.760;2023-05-11T09:08:03;101610.28;;;16.52;69.16
30516;BME280;17297;54.022;10.760;2023-05-11T09:10:30;101606.09;;;16.49;69.10
30516;BME280;17297;54.022;10.760;2023-05-11T09:12:56;101604.44;;;16.48;69.25
30516;BME280;17297;54.022;10.760;2023-05-11T09:15:21;101606.09;;;16.49;69.35
30516;BME280;17297;54.022;10.760;2023-05-11T09:17:47;101611.53;;;16.49;69.27
30516;BME280;17297;54.022;10.760;2023-05-11T09:20:12;101605.47;;;16.47;69.14
30516;BME280;17297;54.022;10.760;2023-05-11T09:22:45;101601.28;;;16.45;69.27
30516;BME280;17297;54.022;10.760;2023-05-11T09:25:14;101609.25;;;16.46;69.22
30516;BME280;17297;54.022;10.760;2023-05-11T09:27:46;101607.34;;;16.47;69.30
30516;BME280;17297;54.022;10.760;2023-05-11T09:38:05;101600.03;;;16.60;69.52
30516;BME280;17297;54.022;10.760;2023-05-11T09:40:38;101599.63;;;16.63;69.65
30516;BME280;17297;54.022;10.760;2023-05-11T09:43:18;101606.88;;;16.70;69.61
30516;BME280;17297;54.022;10.760;2023-05-11T09:45:45;101609.66;;;16.76;69.60
30516;BME280;17297;54.022;10.760;2023-05-11T09:50:46;101605.81;;;16.91;69.72
30516;BME280;17297;54.022;10.760;2023-05-11T09:53:12;101606.41;;;16.99;69.66
30516;BME280;17297;54.022;10.760;2023-05-11T09:55:37;101604.75;;;17.05;69.48
30516;BME280;17297;54.022;10.760;2023-05-11T09:58:03;101600.94;;;17.13;69.41
30516;BME280;17297;54.022;10.760;2023-05-11T10:00:31;101596.09;;;17.21;69.71
30516;BME280;17297;54.022;10.760;2023-05-11T10:03:01;101599.81;;;17.27;69.58
30516;BME280;17297;54.022;10.760;2023-05-11T10:05:29;101594.78;;;17.30;69.45
30516;BME280;17297;54.022;10.760;2023-05-11T10:07:59;101601.25;;;17.36;69.37
30516;BME280;17297;54.022;10.760;2023-05-11T10:10:27;101597.03;;;17.40;69.38
30516;BME280;17297;54.022;10.760;2023-05-11T10:12:55;101597.22;;;17.45;69.55
30516;BME280;17297;54.022;10.760;2023-05-11T10:15:22;101591.13;;;17.50;69.49
30516;BME280;17297;54.022;10.760;2023-05-11T10:17:56;101591.69;;;17.59;69.65
30516;BME280;17297;54.022;10.760;2023-05-11T10:20:25;101587.66;;;17.68;69.75
30516;BME280;17297;54.022;10.760;2023-05-11T10:22:52;101591.41;;;17.73;69.44
30516;BME280;17297;54.022;10.760;2023-05-11T10:25:21;101590.34;;;17.74;69.10
30516;BME280;17297;54.022;10.760;2023-05-11T10:27:47;101583.66;;;17.77;68.92
30516;BME280;17297;54.022;10.760;2023-05-11T10:30:13;101588.44;;;17.75;69.06
30516;BME280;17297;54.022;10.760;2023-05-11T10:32:39;101581.97;;;17.76;68.83
30516;BME280;17297;54.022;10.760;2023-05-11T10:35:05;101584.06;;;17.74;68.65
30516;BME280;17297;54.022;10.760;2023-05-11T10:37:32;101575.66;;;17.75;68.71
30516;BME280;17297;54.022;10.760;2023-05-11T10:39:58;101579.03;;;17.77;68.83
30516;BME280;17297;54.022;10.760;2023-05-11T10:42:30;101582.78;;;17.76;68.77
30516;BME280;17297;54.022;10.760;2023-05-11T10:57:26;101561.81;;;17.84;68.70
30516;BME280;17297;54.022;10.760;2023-05-11T11:00:22;101562.66;;;17.84;68.55
30516;BME280;17297;54.022;10.760;2023-05-11T11:03:08;101563.91;;;17.88;68.86
30516;BME280;17297;54.022;10.760;2023-05-11T11:05:34;101559.88;;;17.91;68.54
30516;BME280;17297;54.022;10.760;2023-05-11T11:08:02;101562.78;;;17.96;68.57
30516;BME280;17297;54.022;10.760;2023-05-11T11:10:43;101566.50;;;18.02;68.90
30516;BME280;17297;54.022;10.760;2023-05-11T11:13:12;101551.38;;;18.06;68.83
30516;BME280;17297;54.022;10.760;2023-05-11T11:18:19;101557.56;;;18.19;68.19
30516;BME280;17297;54.022;10.760;2023-05-11T11:20:52;101555.66;;;18.20;68.02
30516;BME280;17297;54.022;10.760;2023-05-11T11:26:12;101541.81;;;18.21;68.11
30516;BME280;17297;54.022;10.760;2023-05-11T11:31:30;101556.41;;;18.27;68.13
30516;BME280;17297;54.022;10.760;2023-05-11T11:33:57;101543.41;;;18.29;68.23
30516;BME280;17297;54.022;10.760;2023-05-11T11:39:50;101551.06;;;18.39;68.29
30516;BME280;17297;54.022;10.760;2023-05-11T11:42:30;101553.34;;;18.42;68.05
30516;BME280;17297;54.022;10.760;2023-05-11T11:45:24;101551.22;;;18.44;68.18
30516;BME280;17297;54.022;10.760;2023-05-11T11:48:11;101549.34;;;18.44;67.86
30516;BME280;17297;54.022;10.760;2023-05-11T11:50:47;101548.47;;;18.44;68.06
30516;BME280;17297;54.022;10.760;2023-05-11T11:56:01;101550.31;;;18.50;67.99
30516;BME280;17297;54.022;10.760;2023-05-11T12:01:05;101545.63;;;18.57;67.54
30516;BME280;17297;54.022;10.760;2023-05-11T12:03:35;101554.03;;;18.56;67.45
30516;BME280;17297;54.022;10.760;2023-05-11T12:06:03;101553.19;;;18.55;67.21
30516;BME280;17297;54.022;10.760;2023-05-11T12:08:29;101554.25;;;18.54;67.35
30516;BME280;17297;54.022;10.760;2023-05-11T12:11:01;101558.03;;;18.53;67.32
30516;BME280;17297;54.022;10.760;2023-05-11T12:13:27;101556.16;;;18.54;67.06
30516;BME280;17297;54.022;10.760;2023-05-11T12:16:11;101557.44;;;18.51;67.11
30516;BME280;17297;54.022;10.760;2023-05-11T12:18:41;101558.94;;;18.47;66.80
30516;BME280;17297;54.022;10.760;2023-05-11T12:21:18;101564.00;;;18.43;67.03
30516;BME280;17297;54.022;10.760;2023-05-11T12:24:00;101562.97;;;18.44;67.12
30516;BME280;17297;54.022;10.760;2023-05-11T12:26:26;101564.00;;;18.43;67.03
30516;BME280;17297;54.022;10.760;2023-05-11T12:29:13;101561.97;;;18.39;66.95
30516;BME280;17297;54.022;10.760;2023-05-11T12:31:43;101570.13;;;18.39;66.69
30516;BME280;17297;54.022;10.760;2023-05-11T12:34:16;101570.59;;;18.36;66.59
30516;BME280;17297;54.022;10.760;2023-05-11T12:36:44;101566.41;;;18.33;66.32
30516;BME280;17297;54.022;10.760;2023-05-11T12:39:26;101566.41;;;18.33;66.15
30516;BME280;17297;54.022;10.760;2023-05-11T12:41:53;101569.97;;;18.34;65.97
30516;BME280;17297;54.022;10.760;2023-05-11T12:44:20;101570.22;;;18.32;65.62
30516;BME280;17297;54.022;10.760;2023-05-11T12:46:47;101573.97;;;18.31;65.53
30516;BME280;17297;54.022;10.760;2023-05-11T12:49:20;101562.25;;;18.31;65.73
30516;BME280;17297;54.022;10.760;2023-05-11T12:51:58;101565.72;;;18.38;65.76
30516;BME280;17297;54.022;10.760;2023-05-11T12:56:53;101561.97;;;18.39;65.77
30516;BME280;17297;54.022;10.760;2023-05-11T12:59:40;101563.41;;;18.41;65.50
30516;BME280;17297;54.022;10.760;2023-05-11T13:04:31;101556.66;;;18.44;65.07
30516;BME280;17297;54.022;10.760;2023-05-11T13:06:57;101559.63;;;18.42;64.94
30516;BME280;17297;54.022;10.760;2023-05-11T13:09:26;101554.38;;;18.41;64.58
30516;BME280;17297;54.022;10.760;2023-05-11T13:12:15;101556.28;;;18.40;64.52
30516;BME280;17297;54.022;10.760;2023-05-11T13:15:02;101552.97;;;18.38;64.30
30516;BME280;17297;54.022;10.760;2023-05-11T13:17:29;101550.69;;;18.35;64.10
30516;BME280;17297;54.022;10.760;2023-05-11T13:19:55;101552.19;;;18.31;63.96
30516;BME280;17297;54.022;10.760;2023-05-11T13:22:20;101557.69;;;18.24;63.91
30516;BME280;17297;54.022;10.760;2023-05-11T13:24:46;101542.63;;;18.22;64.06
30516;BME280;17297;54.022;10.760;2023-05-11T13:27:11;101539.16;;;18.15;63.94
30516;BME280;17297;54.022;10.760;2023-05-11T13:29:36;101539.88;;;18.04;64.10
30516;BME280;17297;54.022;10.760;2023-05-11T13:32:02;101538.72;;;17.93;64.55